Daisinmaru No.11 — JK5352 — position and weather

sailwx.info

Track history (hours):
 
Tides and Currents Weather Stations Pressure Air Temp Water Temp Dewpoint Dewpoint Depression Visibility Wind Speed Wind Dir Waves Ship Positions

Daisinmaru No.11

Last reported at 2016-Dec-10 04:19 UTC. Time now 2016-Dec-10 12:45 UTC.
Position N 35°29' E 139°55'.

Length 52 m; draft 5.2 m.

Type: Cargo ship. MMSI: 431000667.

Date/timePositionNaut miles runAvg speedWind from/ knotsBaromVisibWave heightAir tempDewpointWater temp
2016-Dec-10 04:19N 35°29' E 139°55'7 9.4
2016-Dec-10 03:33N 35°30' E 139°46'3 3.0
2016-Dec-10 02:33N 35°29' E 139°43'0 0.0
2016-Dec-10 01:33N 35°29' E 139°43'5 4.7
2016-Dec-10 00:33N 35°30' E 139°48'6 0.4
2016-Dec-09 08:05N 35°29' E 139°56'5 9.4
2016-Dec-09 07:33N 35°28' E 139°50'6 6.0
2016-Dec-09 06:33N 35°29' E 139°43'0 0.0
2016-Dec-09 05:33N 35°29' E 139°43'0 0.0
2016-Dec-09 04:33N 35°29' E 139°43'0 0.0
2016-Dec-09 03:33N 35°29' E 139°43'5 4.5
2016-Dec-09 02:33N 35°29' E 139°48'9 8.6
2016-Dec-09 01:32N 35°29' E 139°59'3 0.1
2016-Dec-08 04:31N 35°29' E 139°56'9 9.1
2016-Dec-08 03:34N 35°30' E 139°45'2 2.2
2016-Dec-08 02:34N 35°29' E 139°43'0 0.0
2016-Dec-08 01:34N 35°29' E 139°43'3 2.6
2016-Dec-08 00:33N 35°30' E 139°46'1010.1
2016-Dec-07 23:33N 35°29' E 139°58'5 0.3
2016-Dec-07 07:25N 35°30' E 139°52'8 8.9
2016-Dec-07 06:33N 35°29' E 139°43'0 0.1
2016-Dec-07 05:33N 35°29' E 139°43'0 0.0
2016-Dec-07 04:34N 35°29' E 139°43'0 0.0
2016-Dec-07 03:33N 35°29' E 139°43'9 8.9
2016-Dec-07 02:34N 35°29' E 139°54'0 0.0
2016-Dec-06 02:21N 35°29' E 139°53'7 9.0
2016-Dec-06 01:33N 35°30' E 139°45'2 1.8
2016-Dec-06 00:33N 35°29' E 139°43'0 0.0
2016-Dec-05 23:33N 35°29' E 139°43'4 4.3
2016-Dec-05 22:33N 35°30' E 139°48'12 1.0
2016-Dec-05 10:26N 35°33' E 140°03'17 8.9
2016-Dec-05 08:33N 35°29' E 139°43'0 0.0
2016-Dec-05 07:33N 35°29' E 139°43'0 0.1
2016-Dec-05 06:33N 35°29' E 139°43'0 0.0
2016-Dec-05 05:33N 35°29' E 139°43'0 0.0
2016-Dec-05 04:33N 35°29' E 139°43'3 3.4
2016-Dec-05 03:33N 35°30' E 139°47'1010.0
2016-Dec-05 02:33N 35°29' E 139°59'4 0.1
2016-Dec-03 04:28N 35°29' E 139°54'8 9.2
2016-Dec-03 03:34N 35°30' E 139°44'1 1.4
2016-Dec-03 02:34N 35°29' E 139°43'0 0.0
2016-Dec-03 01:34N 35°29' E 139°43'0 0.4
2016-Dec-03 00:34N 35°29' E 139°43'9 9.4
2016-Dec-02 23:33N 35°29' E 139°55'4 0.2
2016-Dec-02 06:33N 35°30' E 139°50'6 5.8
2016-Dec-02 05:33N 35°29' E 139°43'0 0.0
2016-Dec-02 04:33N 35°29' E 139°43'0 0.0
2016-Dec-02 03:33N 35°29' E 139°43'9 8.9
2016-Dec-02 02:33N 35°29' E 139°54'1 0.0
2016-Dec-01 02:29N 35°29' E 139°53'8 9.0
2016-Dec-01 01:34N 35°29' E 139°43'0 0.2
2016-Dec-01 00:33N 35°29' E 139°43'0 0.0
2016-Nov-30 23:33N 35°29' E 139°43'3 3.4
2016-Nov-30 22:34N 35°30' E 139°47'11 9.6
2016-Nov-30 21:24N 35°27' E 139°60'  
Track history (hours):
 
Tides and Currents Weather Stations Pressure Air Temp Water Temp Dewpoint Dewpoint Depression Visibility Wind Speed Wind Dir Waves Ship Positions

Daisinmaru No.11

Last reported at 2016-Dec-10 04:19 UTC. Time now 2016-Dec-10 12:45 UTC.
Position N 35°29' E 139°55'.

Length 52 m; draft 5.2 m.

Type: Cargo ship. MMSI: 431000667.

Date/timePositionNaut miles runAvg speedWind from/ knotsBaromVisibWave heightAir tempDewpointWater temp
2016-Dec-10 04:19N 35°29' E 139°55'7 9.4
2016-Dec-10 03:33N 35°30' E 139°46'3 3.0
2016-Dec-10 02:33N 35°29' E 139°43'0 0.0
2016-Dec-10 01:33N 35°29' E 139°43'5 4.7
2016-Dec-10 00:33N 35°30' E 139°48'6 0.4
2016-Dec-09 08:05N 35°29' E 139°56'5 9.4
2016-Dec-09 07:33N 35°28' E 139°50'6 6.0
2016-Dec-09 06:33N 35°29' E 139°43'0 0.0
2016-Dec-09 05:33N 35°29' E 139°43'0 0.0
2016-Dec-09 04:33N 35°29' E 139°43'0 0.0
2016-Dec-09 03:33N 35°29' E 139°43'5 4.5
2016-Dec-09 02:33N 35°29' E 139°48'9 8.6
2016-Dec-09 01:32N 35°29' E 139°59'3 0.1
2016-Dec-08 04:31N 35°29' E 139°56'9 9.1
2016-Dec-08 03:34N 35°30' E 139°45'2 2.2
2016-Dec-08 02:34N 35°29' E 139°43'0 0.0
2016-Dec-08 01:34N 35°29' E 139°43'3 2.6
2016-Dec-08 00:33N 35°30' E 139°46'1010.1
2016-Dec-07 23:33N 35°29' E 139°58'5 0.3
2016-Dec-07 07:25N 35°30' E 139°52'8 8.9
2016-Dec-07 06:33N 35°29' E 139°43'0 0.1
2016-Dec-07 05:33N 35°29' E 139°43'0 0.0
2016-Dec-07 04:34N 35°29' E 139°43'0 0.0
2016-Dec-07 03:33N 35°29' E 139°43'9 8.9
2016-Dec-07 02:34N 35°29' E 139°54'0 0.0
2016-Dec-06 02:21N 35°29' E 139°53'7 9.0
2016-Dec-06 01:33N 35°30' E 139°45'2 1.8
2016-Dec-06 00:33N 35°29' E 139°43'0 0.0
2016-Dec-05 23:33N 35°29' E 139°43'4 4.3
2016-Dec-05 22:33N 35°30' E 139°48'12 1.0
2016-Dec-05 10:26N 35°33' E 140°03'17 8.9
2016-Dec-05 08:33N 35°29' E 139°43'0 0.0
2016-Dec-05 07:33N 35°29' E 139°43'0 0.1
2016-Dec-05 06:33N 35°29' E 139°43'0 0.0
2016-Dec-05 05:33N 35°29' E 139°43'0 0.0
2016-Dec-05 04:33N 35°29' E 139°43'3 3.4
2016-Dec-05 03:33N 35°30' E 139°47'1010.0
2016-Dec-05 02:33N 35°29' E 139°59'4 0.1
2016-Dec-03 04:28N 35°29' E 139°54'8 9.2
2016-Dec-03 03:34N 35°30' E 139°44'1 1.4
2016-Dec-03 02:34N 35°29' E 139°43'0 0.0
2016-Dec-03 01:34N 35°29' E 139°43'0 0.4
2016-Dec-03 00:34N 35°29' E 139°43'9 9.4
2016-Dec-02 23:33N 35°29' E 139°55'4 0.2
2016-Dec-02 06:33N 35°30' E 139°50'6 5.8
2016-Dec-02 05:33N 35°29' E 139°43'0 0.0
2016-Dec-02 04:33N 35°29' E 139°43'0 0.0
2016-Dec-02 03:33N 35°29' E 139°43'9 8.9
2016-Dec-02 02:33N 35°29' E 139°54'1 0.0
2016-Dec-01 02:29N 35°29' E 139°53'8 9.0
2016-Dec-01 01:34N 35°29' E 139°43'0 0.2
2016-Dec-01 00:33N 35°29' E 139°43'0 0.0
2016-Nov-30 23:33N 35°29' E 139°43'3 3.4
2016-Nov-30 22:34N 35°30' E 139°47'11 9.6
2016-Nov-30 21:24N 35°27' E 139°60'  

Dump ship's entire track history